West Rutland, MA

1:00 PM EST on December 09, 2016 (GMT -0500)
Rocky Hill Woods-Oakham | | Change Station

Elev 1037 ft 42.34 °N, 72.01 °W | Updated 2 minutes ago

Mostly Cloudy
Mostly Cloudy
51.3 °F
Feels Like 51.3 °F
N
4.5
Wind Variable Wind from NE
Gusts 4.5 mph

Today
High -- | Low -- °F
--% Chance of Precip.
Yesterday
High -- | Low -- °F
Precip. -- in
Pressure 29.96 in
Visibility 10.0 miles
Clouds Mostly Cloudy 4400 ft
Dew Point 51.0 °F
Humidity 99%
Rainfall in
Snow Depth Not available.
7:05 AM 4:15 PM
Waxing Gibbous, 76% visible
METAR KORH 091754Z 28021G28KT 10SM BKN044 M01/M12 A2992 RMK AO2 PK WND 31031/1731 SLP146 60000 T10111122 11011 21028 58002
Pressure 29.96 in
Visibility 10.0 miles
Clouds Mostly Cloudy 4400 ft
Dew Point 51.0 °F
Humidity 99%
Rainfall in
Snow Depth Not available.
7:05 AM 4:15 PM
Waxing Gibbous, 76% visible
METAR KORH 091754Z 28021G28KT 10SM BKN044 M01/M12 A2992 RMK AO2 PK WND 31031/1731 SLP146 60000 T10111122 11011 21028 58002

10-Day Weather Forecast

Almanac

Astronomy

Dec. 09, 2016 Rise Set
Actual Time
Civil Twilight
Nautical Twilight
Astronomical Twilight
Moon
Length of Visible Light
Length of Day
Tomorrow will be .
, % of the Moon is Illuminated

Today's Extremes

State Highs State Lows

Community

WunderPhotos

Upload Photos

1,956,499 photos uploaded!

WunderBlog® & News

Nearby

Air Quality

  Air Quality AQ Index Pollutant
Not available.

Snow Depth

Station Depth Elevation

Earthquake Activity

City Distance Mag. Time & Date
Minimum magnitude displayed is 2.5.

Coastal Water Temperatures

Place Temperature

Stations

Nearby Weather Stations

Station Location Temp. Windchill Dew Point Humidity Wind Precip. Elev Updated Type
                   

Watches & Warnings

There are currently no watches in effect.